createdAt,value
2023-03-27T00:01:27.496Z,0.00
2023-03-27T00:03:55.842Z,0.20
2023-03-27T00:06:25.250Z,0.10
2023-03-27T00:08:53.721Z,0.20
2023-03-27T00:11:22.652Z,0.00
2023-03-27T00:13:54.500Z,0.00
2023-03-27T00:16:27.142Z,0.10
2023-03-27T00:18:56.023Z,0.00
2023-03-27T00:21:24.474Z,0.00
2023-03-27T00:23:52.561Z,0.20
2023-03-27T00:26:22.209Z,0.30
2023-03-27T00:28:49.947Z,0.20
2023-03-27T00:31:17.886Z,0.10
2023-03-27T00:33:46.155Z,0.20
2023-03-27T00:36:15.348Z,0.10
2023-03-27T00:38:43.957Z,0.10
2023-03-27T00:41:12.863Z,0.10
2023-03-27T00:43:43.981Z,0.20
2023-03-27T00:46:14.968Z,0.30
2023-03-27T00:48:48.093Z,0.10
2023-03-27T00:51:18.213Z,0.20
2023-03-27T00:53:48.339Z,0.10
2023-03-27T00:56:19.191Z,0.10
2023-03-27T00:58:52.689Z,0.20
2023-03-27T01:01:24.895Z,0.20
2023-03-27T01:03:54.107Z,0.20
2023-03-27T01:06:22.990Z,0.20
2023-03-27T01:08:50.802Z,0.10
2023-03-27T01:11:53.709Z,0.10
2023-03-27T01:14:46.910Z,0.20
2023-03-27T01:17:45.964Z,0.10
2023-03-27T01:20:59.982Z,0.10
2023-03-27T01:24:30.219Z,0.10
2023-03-27T01:27:16.381Z,0.20
2023-03-27T01:30:11.027Z,0.10
2023-03-27T01:33:47.155Z,0.20
2023-03-27T01:36:40.020Z,0.10
2023-03-27T01:39:39.323Z,0.10
2023-03-27T01:42:59.688Z,0.00
2023-03-27T01:45:51.027Z,0.30
2023-03-27T01:48:54.586Z,0.40
2023-03-27T01:51:43.937Z,0.20
2023-03-27T01:54:32.875Z,0.20
2023-03-27T01:57:12.610Z,0.10
2023-03-27T01:59:47.869Z,0.20
2023-03-27T02:02:27.893Z,0.10
2023-03-27T02:05:07.666Z,0.30
2023-03-27T02:07:44.805Z,0.20
2023-03-27T02:10:20.058Z,0.30
2023-03-27T02:12:56.552Z,0.10
2023-03-27T02:15:34.084Z,0.10
2023-03-27T02:18:10.245Z,0.00
2023-03-27T02:20:41.287Z,0.20
2023-03-27T02:23:09.144Z,0.20
2023-03-27T02:25:44.602Z,0.10
2023-03-27T02:28:41.252Z,0.20
2023-03-27T02:31:33.527Z,0.00
2023-03-27T02:34:58.841Z,0.20
2023-03-27T02:38:23.835Z,0.60
2023-03-27T02:41:04.408Z,0.20
2023-03-27T02:44:24.188Z,0.20
2023-03-27T02:47:07.684Z,0.20
2023-03-27T02:50:02.869Z,0.10
2023-03-27T02:52:41.419Z,0.20
2023-03-27T02:55:20.121Z,0.30
2023-03-27T02:57:56.732Z,0.80
2023-03-27T03:00:30.325Z,0.50
2023-03-27T03:03:08.611Z,0.30
2023-03-27T03:05:41.262Z,0.20
2023-03-27T03:08:10.570Z,0.30
2023-03-27T03:10:46.226Z,0.60
2023-03-27T03:13:18.119Z,0.60
2023-03-27T03:15:50.479Z,0.50
2023-03-27T03:18:19.100Z,0.60
2023-03-27T03:20:46.926Z,0.60
2023-03-27T03:23:14.642Z,0.70
2023-03-27T03:25:44.121Z,0.50
2023-03-27T03:28:13.139Z,0.60
2023-03-27T03:30:45.677Z,0.70
2023-03-27T03:33:14.391Z,0.60
2023-03-27T03:35:43.351Z,1.10
2023-03-27T03:38:11.248Z,0.90
2023-03-27T03:40:38.965Z,0.60
2023-03-27T03:43:06.739Z,0.90
2023-03-27T03:45:34.502Z,0.70
2023-03-27T03:48:02.286Z,0.70
2023-03-27T03:50:30.024Z,0.90
2023-03-27T03:52:57.818Z,1.00
2023-03-27T03:55:26.022Z,1.00
2023-03-27T03:57:53.784Z,1.20
2023-03-27T04:00:23.044Z,1.10
2023-03-27T04:02:53.993Z,1.10
2023-03-27T04:05:22.852Z,1.10
2023-03-27T04:07:50.578Z,1.10
2023-03-27T04:10:19.159Z,0.90
2023-03-27T04:12:49.290Z,0.70
2023-03-27T04:15:17.529Z,1.00
2023-03-27T04:17:46.023Z,1.20
2023-03-27T04:20:15.036Z,1.40
2023-03-27T04:22:51.369Z,1.90
2023-03-27T04:25:23.687Z,1.30
2023-03-27T04:27:52.040Z,1.30
2023-03-27T04:30:23.154Z,1.50
2023-03-27T04:32:53.130Z,1.80
2023-03-27T04:35:21.787Z,1.70
2023-03-27T04:37:50.481Z,1.70
2023-03-27T04:40:18.439Z,1.30
2023-03-27T04:42:46.536Z,1.20
2023-03-27T04:45:18.430Z,1.40
2023-03-27T04:47:49.192Z,1.40
2023-03-27T04:50:17.787Z,1.80
2023-03-27T04:52:50.153Z,1.50
2023-03-27T04:55:19.502Z,1.90
2023-03-27T04:57:47.943Z,1.60
2023-03-27T05:00:19.124Z,1.50
2023-03-27T05:02:48.956Z,1.20
2023-03-27T05:05:17.115Z,1.60
2023-03-27T05:07:47.357Z,1.50
2023-03-27T05:10:17.469Z,1.70
2023-03-27T05:12:53.346Z,1.40
2023-03-27T05:15:21.879Z,1.30
2023-03-27T05:17:54.524Z,1.70
2023-03-27T05:20:22.735Z,1.70
2023-03-27T05:22:54.795Z,1.60
2023-03-27T05:25:24.623Z,1.70
2023-03-27T05:27:54.236Z,1.70
2023-03-27T05:30:24.827Z,2.00
2023-03-27T05:32:53.961Z,2.40
2023-03-27T05:35:24.417Z,2.60
2023-03-27T05:37:55.120Z,2.70
2023-03-27T05:40:26.877Z,2.30
2023-03-27T05:42:56.805Z,2.00
2023-03-27T05:45:24.669Z,2.10
2023-03-27T05:48:02.909Z,2.20
2023-03-27T05:50:35.289Z,2.20
2023-03-27T05:53:10.315Z,2.30
2023-03-27T05:55:39.213Z,2.40
2023-03-27T05:58:10.183Z,2.30
2023-03-27T06:00:41.947Z,2.20
2023-03-27T06:03:12.966Z,2.10
2023-03-27T06:05:41.630Z,2.00
2023-03-27T06:08:11.831Z,2.40
2023-03-27T06:10:43.417Z,2.00
2023-03-27T06:13:13.863Z,2.30
2023-03-27T06:15:43.398Z,2.70
2023-03-27T06:18:11.815Z,2.40
2023-03-27T06:20:40.411Z,1.40
2023-03-27T06:23:09.426Z,1.90
2023-03-27T06:25:39.490Z,1.60
2023-03-27T06:28:09.603Z,1.20
2023-03-27T06:30:39.013Z,2.10
2023-03-27T06:33:08.128Z,1.70
2023-03-27T06:35:36.921Z,1.60
2023-03-27T06:38:06.504Z,1.40
2023-03-27T06:40:35.534Z,1.90
2023-03-27T06:43:07.622Z,1.60
2023-03-27T06:45:46.221Z,2.10
2023-03-27T06:48:21.325Z,2.20
2023-03-27T06:50:52.747Z,1.60
2023-03-27T06:53:27.182Z,1.40
2023-03-27T06:55:57.876Z,1.80
2023-03-27T06:58:27.342Z,1.70
2023-03-27T07:01:03.039Z,2.00
2023-03-27T07:03:30.842Z,1.90
2023-03-27T07:05:58.897Z,1.70
2023-03-27T07:08:27.133Z,2.00
2023-03-27T07:11:10.576Z,1.50
2023-03-27T07:13:41.273Z,1.20
2023-03-27T07:16:13.923Z,0.30
2023-03-27T07:18:42.214Z,0.50
2023-03-27T07:21:10.291Z,0.90
2023-03-27T07:23:38.196Z,1.10
2023-03-27T07:26:06.815Z,0.70
2023-03-27T07:28:38.460Z,0.50
2023-03-27T07:31:29.267Z,0.70
2023-03-27T07:34:00.105Z,0.50
2023-03-27T07:36:28.954Z,0.70
2023-03-27T07:38:57.084Z,0.70
2023-03-27T07:41:24.875Z,0.90
2023-03-27T07:43:52.729Z,0.90
2023-03-27T07:46:20.612Z,0.90
2023-03-27T07:48:49.285Z,1.00
2023-03-27T07:51:20.426Z,1.00
2023-03-27T07:53:49.300Z,0.60
2023-03-27T07:56:17.000Z,1.00
2023-03-27T07:58:44.888Z,0.50
2023-03-27T08:01:13.450Z,0.60
2023-03-27T08:03:42.080Z,0.80
2023-03-27T08:06:10.314Z,0.80
2023-03-27T08:08:38.064Z,1.00
2023-03-27T08:11:13.499Z,0.80
2023-03-27T08:13:47.821Z,0.70
2023-03-27T08:16:18.761Z,1.10
2023-03-27T08:18:47.555Z,1.20
2023-03-27T08:21:15.855Z,0.70
2023-03-27T08:23:43.648Z,0.60
2023-03-27T08:26:11.965Z,1.00
2023-03-27T08:28:39.933Z,0.90
2023-03-27T08:31:13.176Z,0.80
2023-03-27T08:33:43.273Z,0.50
2023-03-27T08:36:13.402Z,0.50
2023-03-27T08:38:43.285Z,0.30
2023-03-27T08:41:38.989Z,0.40
2023-03-27T08:44:14.421Z,0.50
2023-03-27T08:46:50.734Z,0.30
2023-03-27T08:49:21.968Z,0.40
2023-03-27T08:52:01.155Z,0.30
2023-03-27T08:54:33.064Z,0.60
2023-03-27T08:57:01.428Z,0.20
2023-03-27T08:59:31.623Z,0.40
2023-03-27T09:02:29.266Z,0.50
2023-03-27T09:05:09.531Z,0.60
2023-03-27T09:08:01.776Z,0.50
2023-03-27T09:10:48.929Z,0.30
2023-03-27T09:13:33.513Z,0.30
2023-03-27T09:16:13.252Z,0.30
2023-03-27T09:18:57.331Z,0.30
2023-03-27T09:22:05.799Z,0.40
2023-03-27T09:24:44.662Z,0.90
2023-03-27T09:27:25.486Z,0.30
2023-03-27T09:30:14.485Z,0.70
2023-03-27T09:32:43.768Z,0.60
2023-03-27T09:35:16.525Z,0.80
2023-03-27T09:37:45.043Z,0.70
2023-03-27T09:40:25.415Z,0.80
2023-03-27T09:42:54.734Z,0.40
2023-03-27T09:45:23.128Z,0.40
2023-03-27T09:47:57.096Z,0.60
2023-03-27T09:50:28.821Z,0.40
2023-03-27T09:53:14.332Z,0.40
2023-03-27T09:56:02.534Z,0.20
2023-03-27T09:58:41.171Z,0.40
2023-03-27T10:01:20.487Z,0.20
2023-03-27T10:03:54.493Z,0.90
2023-03-27T10:06:38.302Z,0.40
2023-03-27T10:09:23.235Z,0.30
2023-03-27T10:12:08.662Z,0.20
2023-03-27T10:14:46.033Z,0.10
2023-03-27T10:17:37.498Z,0.40
2023-03-27T10:20:19.088Z,0.20
2023-03-27T10:23:07.709Z,0.30
2023-03-27T10:25:50.289Z,0.70
2023-03-27T10:28:27.237Z,0.40
2023-03-27T10:31:14.142Z,0.30
2023-03-27T10:33:42.460Z,0.30
2023-03-27T10:36:12.190Z,0.40
2023-03-27T10:38:42.396Z,0.10
2023-03-27T10:41:28.355Z,0.20
2023-03-27T10:43:58.506Z,0.20
2023-03-27T10:46:29.802Z,0.20
2023-03-27T10:49:25.698Z,0.20
2023-03-27T10:52:33.051Z,0.20
2023-03-27T10:55:24.067Z,0.40
2023-03-27T10:57:57.851Z,0.30
2023-03-27T11:00:41.654Z,0.40
2023-03-27T11:03:26.275Z,0.20
2023-03-27T11:05:54.932Z,0.30
2023-03-27T11:08:48.384Z,0.40
2023-03-27T11:11:32.760Z,0.60
2023-03-27T11:14:07.261Z,0.30
2023-03-27T11:16:49.574Z,0.30
2023-03-27T11:19:38.134Z,0.30
2023-03-27T11:22:28.148Z,0.10
2023-03-27T11:25:18.573Z,0.10
2023-03-27T11:28:47.251Z,0.20
2023-03-27T11:31:51.151Z,0.50
2023-03-27T11:34:34.541Z,0.20
2023-03-27T11:37:12.945Z,0.40
2023-03-27T11:39:57.172Z,0.30
2023-03-27T11:42:32.692Z,0.30
2023-03-27T11:45:04.636Z,0.30
2023-03-27T11:47:52.289Z,0.30
2023-03-27T11:50:29.096Z,0.20
2023-03-27T11:53:38.241Z,0.20
2023-03-27T11:56:35.609Z,0.10
2023-03-27T11:59:38.827Z,0.20
2023-03-27T12:03:06.921Z,0.20
2023-03-27T12:05:55.393Z,0.10
2023-03-27T12:08:53.284Z,0.30
2023-03-27T12:11:26.966Z,0.20
2023-03-27T12:14:40.091Z,0.20
2023-03-27T12:17:26.848Z,0.20
2023-03-27T12:20:21.020Z,0.20
2023-03-27T12:23:23.765Z,0.20
2023-03-27T12:26:13.444Z,0.10
2023-03-27T12:29:22.623Z,0.30
2023-03-27T12:31:59.550Z,0.30
2023-03-27T12:34:54.586Z,0.20
2023-03-27T12:37:31.205Z,0.20
2023-03-27T12:40:00.985Z,0.20
2023-03-27T12:42:53.321Z,0.20
2023-03-27T12:45:27.537Z,0.40
2023-03-27T12:48:11.604Z,0.10
2023-03-27T12:50:51.250Z,0.20
2023-03-27T12:53:40.097Z,0.30
2023-03-27T12:56:13.388Z,0.10
2023-03-27T12:58:41.432Z,0.20
2023-03-27T13:01:38.870Z,0.20
2023-03-27T13:04:43.819Z,0.30
2023-03-27T13:07:36.466Z,0.20
2023-03-27T13:10:35.413Z,0.20
2023-03-27T13:13:39.442Z,0.20
2023-03-27T13:16:38.517Z,0.20
2023-03-27T13:19:43.639Z,0.10
2023-03-27T13:22:48.428Z,0.20
2023-03-27T13:25:47.492Z,0.10
2023-03-27T13:28:34.668Z,0.20
2023-03-27T13:31:11.376Z,0.10
2023-03-27T13:34:04.164Z,0.10
2023-03-27T13:36:32.001Z,0.20
2023-03-27T13:39:06.787Z,0.20
2023-03-27T13:41:43.488Z,0.20
2023-03-27T13:44:21.719Z,0.10
2023-03-27T13:47:01.631Z,0.10
2023-03-27T13:50:26.344Z,0.20
2023-03-27T13:53:44.969Z,0.10
2023-03-27T13:57:05.146Z,0.30
2023-03-27T14:00:06.430Z,0.40
2023-03-27T14:02:56.264Z,0.20
2023-03-27T14:06:03.870Z,0.10
2023-03-27T14:09:11.422Z,0.20
2023-03-27T14:12:25.626Z,0.10
2023-03-27T14:15:36.149Z,0.60
2023-03-27T14:18:19.828Z,0.20
2023-03-27T14:20:56.750Z,0.10
2023-03-27T14:23:42.108Z,0.10
2023-03-27T14:26:20.752Z,0.50
2023-03-27T14:28:55.644Z,0.20
2023-03-27T14:31:26.958Z,0.40
2023-03-27T14:34:03.330Z,0.20
2023-03-27T14:36:34.202Z,0.30
2023-03-27T14:39:25.032Z,0.10
2023-03-27T14:41:55.837Z,0.20
2023-03-27T14:44:26.385Z,0.10
2023-03-27T14:47:04.515Z,0.20
2023-03-27T14:49:45.853Z,0.20
2023-03-27T14:52:25.160Z,0.20
2023-03-27T14:54:57.961Z,0.00
2023-03-27T14:57:28.080Z,0.20
2023-03-27T14:59:56.732Z,0.30
2023-03-27T15:02:34.820Z,0.10
2023-03-27T15:05:17.141Z,0.30
2023-03-27T15:07:49.146Z,0.30
2023-03-27T15:10:28.177Z,0.20
2023-03-27T15:12:56.452Z,0.30
2023-03-27T15:15:39.059Z,0.10
2023-03-27T15:18:34.739Z,0.30
2023-03-27T15:21:14.751Z,0.30
2023-03-27T15:24:13.629Z,0.30
2023-03-27T15:26:41.863Z,0.30
2023-03-27T15:29:39.358Z,0.40
2023-03-27T15:32:14.930Z,0.30
2023-03-27T15:34:49.542Z,0.40
2023-03-27T15:37:24.722Z,0.60
2023-03-27T15:40:09.586Z,0.60
2023-03-27T15:42:52.929Z,0.40
2023-03-27T15:45:39.964Z,0.50
2023-03-27T15:48:25.086Z,0.30
2023-03-27T15:51:06.482Z,0.40
2023-03-27T15:53:59.048Z,0.20
2023-03-27T15:56:43.493Z,0.10
2023-03-27T15:59:15.076Z,0.20
2023-03-27T16:01:53.760Z,0.20
2023-03-27T16:04:39.339Z,0.40
2023-03-27T16:07:16.942Z,0.10
2023-03-27T16:09:52.503Z,0.10
2023-03-27T16:12:30.321Z,0.20
2023-03-27T16:15:01.618Z,0.20
2023-03-27T16:17:39.488Z,0.70
2023-03-27T16:20:11.658Z,0.30
2023-03-27T16:22:40.518Z,0.30
2023-03-27T16:25:12.573Z,0.10
2023-03-27T16:27:54.935Z,0.00
2023-03-27T16:30:36.339Z,0.20
2023-03-27T16:33:17.195Z,0.40
2023-03-27T16:35:46.070Z,0.10
2023-03-27T16:38:14.687Z,0.10
2023-03-27T16:40:45.058Z,0.10
2023-03-27T16:43:14.998Z,0.10
2023-03-27T16:45:45.286Z,0.30
2023-03-27T16:48:13.635Z,0.20
2023-03-27T16:53:26.762Z,0.20
2023-03-27T16:55:56.594Z,0.30
2023-03-27T16:58:24.583Z,0.20
2023-03-27T17:00:52.553Z,0.30
2023-03-27T17:03:20.663Z,0.30
2023-03-27T17:05:48.722Z,0.50
2023-03-27T17:08:19.917Z,0.20
2023-03-27T17:10:48.051Z,0.20
2023-03-27T17:13:16.485Z,0.40
2023-03-27T17:15:44.297Z,0.50
2023-03-27T17:18:12.398Z,0.40
2023-03-27T17:20:40.189Z,0.50
2023-03-27T17:23:08.130Z,0.80
2023-03-27T17:25:35.979Z,0.60
2023-03-27T17:28:05.064Z,0.60
2023-03-27T17:30:41.005Z,0.60
2023-03-27T17:33:13.616Z,0.40
2023-03-27T17:35:42.717Z,0.70
2023-03-27T17:38:12.798Z,0.60
2023-03-27T17:40:45.791Z,0.60
2023-03-27T17:43:20.134Z,0.50
2023-03-27T17:45:49.721Z,0.50
2023-03-27T17:48:17.859Z,0.50
2023-03-27T17:50:54.739Z,0.70
2023-03-27T17:53:27.572Z,0.80
2023-03-27T17:55:57.699Z,0.90
2023-03-27T17:58:28.622Z,0.60
2023-03-27T18:00:56.617Z,0.70
2023-03-27T18:03:25.048Z,0.90
2023-03-27T18:05:53.530Z,1.30
2023-03-27T18:08:21.844Z,0.90
2023-03-27T18:10:51.375Z,1.20
2023-03-27T18:13:19.859Z,1.00
2023-03-27T18:15:57.201Z,0.90
2023-03-27T18:18:25.929Z,0.90
2023-03-27T18:20:55.273Z,1.10
2023-03-27T18:23:23.717Z,1.10
2023-03-27T18:25:52.070Z,0.90
2023-03-27T18:28:20.535Z,0.90
2023-03-27T18:31:03.662Z,1.20
2023-03-27T18:33:32.210Z,1.40
2023-03-27T18:36:10.746Z,1.20
2023-03-27T18:38:41.923Z,1.30
2023-03-27T18:41:11.491Z,1.30
2023-03-27T18:43:39.291Z,1.40
2023-03-27T18:46:08.419Z,1.80
2023-03-27T18:48:36.696Z,2.10
2023-03-27T18:51:06.658Z,2.50
2023-03-27T18:53:35.512Z,2.30
2023-03-27T18:56:05.540Z,2.50
2023-03-27T18:58:34.146Z,2.50
2023-03-27T19:01:02.756Z,2.70
2023-03-27T19:03:35.203Z,3.20
2023-03-27T19:06:07.532Z,2.60
2023-03-27T19:08:42.158Z,2.40
2023-03-27T19:11:10.433Z,2.60
2023-03-27T19:13:38.445Z,3.50
2023-03-27T19:16:14.949Z,5.90
2023-03-27T19:18:43.593Z,4.90
2023-03-27T19:21:11.554Z,5.60
2023-03-27T19:23:39.707Z,5.90
2023-03-27T19:26:15.405Z,5.90
2023-03-27T19:28:44.289Z,5.40
2023-03-27T19:31:12.599Z,4.40
2023-03-27T19:33:41.147Z,5.20
2023-03-27T19:36:09.929Z,5.30
2023-03-27T19:38:38.816Z,5.60
2023-03-27T19:41:11.401Z,6.00
2023-03-27T19:43:39.252Z,5.00
2023-03-27T19:46:16.431Z,5.20
2023-03-27T19:48:47.609Z,4.60
2023-03-27T19:51:15.841Z,4.90
2023-03-27T19:53:43.754Z,5.40
2023-03-27T19:56:11.597Z,6.20
2023-03-27T19:58:39.409Z,6.00
2023-03-27T20:01:07.331Z,5.70
2023-03-27T20:03:38.508Z,6.20
2023-03-27T20:06:13.323Z,5.80
2023-03-27T20:08:42.694Z,5.50
2023-03-27T20:11:10.944Z,6.00
2023-03-27T20:13:53.158Z,5.40
2023-03-27T20:16:27.680Z,5.50
2023-03-27T20:19:04.070Z,5.20
2023-03-27T20:21:39.676Z,5.50
2023-03-27T20:24:10.409Z,5.00
2023-03-27T20:26:41.425Z,5.60
2023-03-27T20:29:13.956Z,5.60
2023-03-27T20:31:42.594Z,5.60
2023-03-27T20:34:11.205Z,6.40
2023-03-27T20:36:39.333Z,6.50
2023-03-27T20:39:14.665Z,6.50
2023-03-27T20:41:42.599Z,5.80
2023-03-27T20:44:15.545Z,7.00
2023-03-27T20:46:51.512Z,7.30
2023-03-27T20:51:59.857Z,7.20
2023-03-27T20:54:29.251Z,6.50
2023-03-27T20:56:58.780Z,6.50
2023-03-27T20:59:31.111Z,5.90
2023-03-27T21:02:00.252Z,5.80
2023-03-27T21:04:29.895Z,5.80
2023-03-27T21:06:58.791Z,4.50
2023-03-27T21:09:27.677Z,6.00
2023-03-27T21:11:56.191Z,6.60
2023-03-27T21:14:24.175Z,5.40
2023-03-27T21:16:52.069Z,5.60
2023-03-27T21:19:20.417Z,5.30
2023-03-27T21:21:48.196Z,5.80
2023-03-27T21:24:16.798Z,5.60
2023-03-27T21:26:44.625Z,5.70
2023-03-27T21:29:12.780Z,5.40
2023-03-27T21:31:41.909Z,5.40
2023-03-27T21:34:09.786Z,5.90
2023-03-27T21:36:38.068Z,5.60
2023-03-27T21:39:06.200Z,5.20
2023-03-27T21:41:33.943Z,5.90
2023-03-27T21:44:02.161Z,5.90
2023-03-27T21:46:30.359Z,6.50
2023-03-27T21:48:58.296Z,5.80
2023-03-27T21:51:26.129Z,5.70
2023-03-27T21:53:53.951Z,5.80
2023-03-27T21:56:21.654Z,6.60
2023-03-27T21:58:50.476Z,6.60
2023-03-27T22:01:18.933Z,6.50
2023-03-27T22:03:46.726Z,5.90
2023-03-27T22:06:15.185Z,6.10
2023-03-27T22:08:43.847Z,5.90
2023-03-27T22:11:12.365Z,6.00
2023-03-27T22:13:41.560Z,6.40
2023-03-27T22:16:16.196Z,6.10
2023-03-27T22:18:44.610Z,5.70
2023-03-27T22:21:18.355Z,5.30
2023-03-27T22:23:46.515Z,4.80
2023-03-27T22:26:15.635Z,5.90
2023-03-27T22:28:44.017Z,5.50
2023-03-27T22:31:12.858Z,5.50
2023-03-27T22:33:41.331Z,6.00
2023-03-27T22:36:11.942Z,5.80
2023-03-27T22:38:41.226Z,6.30
2023-03-27T22:41:11.857Z,6.40
2023-03-27T22:43:41.162Z,6.50
2023-03-27T22:46:20.129Z,5.10
2023-03-27T22:48:53.578Z,4.80
2023-03-27T22:51:21.686Z,4.40
2023-03-27T22:53:49.911Z,5.50
2023-03-27T22:56:18.235Z,4.90
2023-03-27T22:58:49.799Z,4.10
2023-03-27T23:01:17.795Z,4.20
2023-03-27T23:03:45.976Z,3.50
2023-03-27T23:06:20.540Z,3.30
2023-03-27T23:08:53.504Z,3.20
2023-03-27T23:11:22.882Z,3.70
2023-03-27T23:13:50.635Z,3.40
2023-03-27T23:16:18.539Z,3.40
2023-03-27T23:18:46.300Z,3.40
2023-03-27T23:21:16.971Z,3.40
2023-03-27T23:23:45.805Z,2.80
2023-03-27T23:26:14.184Z,2.60
2023-03-27T23:28:42.825Z,2.70
2023-03-27T23:31:17.845Z,2.60
2023-03-27T23:33:54.669Z,3.20
2023-03-27T23:36:25.465Z,2.80
2023-03-27T23:38:53.849Z,2.30
2023-03-27T23:41:22.499Z,1.50
2023-03-27T23:43:50.580Z,1.80
2023-03-27T23:46:18.588Z,2.60
2023-03-27T23:48:46.547Z,1.60
2023-03-27T23:51:17.055Z,1.40
2023-03-27T23:53:45.554Z,2.10
2023-03-27T23:56:14.310Z,2.00
2023-03-27T23:58:42.519Z,2.50
